Strandquist, MN (56758)

13:16 CDT le 28 avril 2015 (GMT -0500)
RAWS | | Change Station
CLOSE
Current Station
Stations météorologiques personnelles
Location: Karlstad, MN
Altitude: 1060 ft
Stations météo à proximité

Alt. 1060 ft 48.59 °N, 96.49 °W | Updated 44 minutes ago

Ciel dégagé
Ciel dégagé
59 ° F
Paraît 59 ° F
N
6
Vent Variable Vent de NO
Gusts 13.0 mph

Aujourd'hui
Haut(e) -- | Bas -- ° F
--% Risque de précip.
Hier
Haut(e) -- | Bas -- ° F
Precip. -- pouce
6:11 AM 8:35 PM
Lune gibbeuse croissante, 75% visible
Pression 30.23 pouce
Visibilité 10.0 Miles terrestres
Nuages Ciel dégagé
Point de rosée 37 ° F
Humidité 43%
Précipitations pouce
Profondeur de la couche neigeuse Non disponible.
UV 9 sur 12
Pollen 9.70 sur 12
Qualité de l'air Non disponible.
Flu Activity Local Activity
METAR KTVF 281755Z AUTO 35008KT 10SM CLR 14/00 A3023 RMK AO1 10140 20050 57017

More Conditions Fewer Conditions

Pression 30.23 pouce
Visibilité 10.0 Miles terrestres
Nuages Ciel dégagé
Point de rosée 37 ° F
Humidité 43%
Précipitations pouce
Profondeur de la couche neigeuse Non disponible.
UV 9 sur 12
Pollen 9.70 sur 12
Qualité de l'air Non disponible.
Flu Activity Local Activity
METAR KTVF 281755Z AUTO 35008KT 10SM CLR 14/00 A3023 RMK AO1 10140 20050 57017

More Conditions Fewer Conditions

10-Day Weather Forecast

Almanac

Astronomie

Apr. 28, 2015 Lever Coucher
Temps réel
Crépuscule civil
Crépuscule nautique
Crépuscule astronomique
Lune
Durée de lumière visible
Longueur du jour
Tomorrow will be .
, % of the Moon is Illuminated

Extrêmes aujourd'hui

State Highs State Lows

Community

WunderPhotos

Upload Photos

1,817,719 Photos téléchargées !

WunderBlogs® & News

Nearby

Qualité de l'air

  Qualité de l'air Indice de la qualité de l'air Polluant
Not available.

Épaisseur de neige

Station Depth Altitude

Activité sismique

Ville Distance Mag. Time & Date
Minimum magnitude displayed is 2.5.

Températures des eaux côtières

Lieu Température

Stations

Stations météo à proximité

Emplacement de la station Température Refroidissement éolien Point de rosée Humidité Vent Precip. Alt. Mise à jour Type